This is the latest recevied weather packets stored in our database for station/object DL7KST-13. If no packets are shown the sender has not sent any weather packets the latest 10 day(s).
| Time | Temp. | Humidity | Pressure | Rain* | Wind** | Luminosity | Snow |
|---|---|---|---|---|---|---|---|
| 1777490959 | 5.56° C | 57% | 1020.9 hPa | 0 mm | 0.45 m/s, 70° | - | - |
| 1777489753 | 6.67° C | 54% | 1020.6 hPa | 0 mm | 0.45 m/s, 77° | - | - |
| 1777488548 | 7.78° C | 48% | 1020.6 hPa | 0 mm | 0 m/s | - | - |
| 1777487342 | 8.89° C | 43% | 1020.3 hPa | 0 mm | 0 m/s | - | - |
| 1777486137 | 10° C | 38% | 1020.3 hPa | 0 mm | 0 m/s | - | - |
| 1777484932 | 11.11° C | 34% | 1020.3 hPa | 0 mm | 0 m/s | - | - |
| 1777483727 | 11.67° C | 32% | 1020.1 hPa | 0 mm | 0.45 m/s, 58° | - | - |
| 1777482523 | 11.67° C | 31% | 1020.3 hPa | 0 mm | 0.89 m/s, 23° | - | - |
| 1777481318 | 12.22° C | 30% | 1020.1 hPa | 0 mm | 0 m/s | - | - |
| 1777480113 | 12.78° C | 29% | 1020.1 hPa | 0 mm | 0.89 m/s, 31° | - | - |
| 1777478908 | 12.22° C | 29% | 1019.9 hPa | 0 mm | 0.45 m/s, 88° | - | - |
| 1777477703 | 12.78° C | 29% | 1020 hPa | 0 mm | 0.89 m/s, 51° | - | - |
| 1777476497 | 12.78° C | 27% | 1020.2 hPa | 0 mm | 1.34 m/s, 58° | - | - |
| 1777474088 | 12.78° C | 26% | 1020.4 hPa | 0 mm | 0 m/s | - | - |
| 1777472883 | 12.78° C | 28% | 1020.2 hPa | 0 mm | 0.89 m/s, 22° | - | - |
| 1777471678 | 12.78° C | 28% | 1020.1 hPa | 0 mm | 1.34 m/s, 21° | - | - |
| 1777470473 | 12.78° C | 28% | 1020.3 hPa | 0 mm | 2.24 m/s, 39° | - | - |
| 1777469267 | 12.22° C | 32% | 1020.3 hPa | 0 mm | 0 m/s | - | - |
| 1777468062 | 12.22° C | 30% | 1020.4 hPa | 0 mm | 0.45 m/s, 149° | - | - |
| 1777466857 | 12.78° C | 28% | 1020.3 hPa | 0 mm | 1.79 m/s, 135° | - | - |
| 1777465653 | 12.78° C | 29% | 1020.5 hPa | 0 mm | 2.24 m/s, 62° | - | - |
| 1777464448 | 12.22° C | 29% | 1020.4 hPa | 0 mm | 0.45 m/s, 105° | - | - |
| 1777463243 | 11.67° C | 27% | 1020.5 hPa | 0 mm | 0 m/s | - | - |
| 1777462038 | 11.67° C | 31% | 1020.7 hPa | 0 mm | 0.45 m/s, 78° | - | - |
| 1777460832 | 11.67° C | 27% | 1020.8 hPa | 0 mm | 0.89 m/s, 36° | - | - |
* Rain latest hour (hover to see other rain measurements)
** Current wind speed in m/s (hover to see current wind gust speed)